Time;durP1;ratioP1;P1;durP2;ratioP2;P2;SDS_P1;SDS_P2;PMS_P1;PMS_P2;Temp;Humidity;BMP_temperature;BMP_pressure;BME280_temperature;BME280_humidity;BME280_pressure;Samples;Min_cycle;Max_cycle;Signal;HPM_P1;HPM_P2
2021/06/29 00:00:22;;;;;;;6.20;4.53;;;20.70;99.90;;;;;;4190446;28;20036;-62
2021/06/29 00:02:24;;;;;;;10.20;4.57;;;20.70;99.90;;;;;;4190571;28;20032;-61
2021/06/29 00:04:25;;;;;;;6.20;4.45;;;20.70;99.90;;;;;;4190558;28;20419;-61
2021/06/29 00:06:26;;;;;;;6.70;4.57;;;20.70;99.90;;;;;;4190266;28;20130;-60
2021/06/29 00:08:27;;;;;;;8.30;4.63;;;20.60;99.90;;;;;;4190673;28;20431;-61
2021/06/29 00:10:30;;;;;;;6.53;4.57;;;20.60;99.90;;;;;;4189979;28;20070;-61
2021/06/29 00:12:33;;;;;;;8.18;4.55;;;20.50;99.90;;;;;;4188913;28;20110;-61
2021/06/29 00:14:34;;;;;;;6.93;4.68;;;20.40;99.90;;;;;;4190455;28;20767;-61
2021/06/29 00:16:35;;;;;;;6.47;4.93;;;20.40;99.90;;;;;;4189623;28;20118;-61
2021/06/29 00:18:36;;;;;;;4.60;4.00;;;20.40;99.90;;;;;;4190463;28;20028;-61
2021/06/29 00:20:37;;;;;;;5.03;4.47;;;20.40;99.90;;;;;;4189617;28;20458;-61
2021/06/29 00:22:39;;;;;;;5.85;4.53;;;20.40;99.90;;;;;;4190194;28;20032;-61
2021/06/29 00:24:40;;;;;;;7.72;4.90;;;20.40;99.90;;;;;;4189434;28;20074;-62
2021/06/29 00:26:42;;;;;;;4.78;4.25;;;20.40;99.90;;;;;;4190249;28;20037;-62
2021/06/29 00:28:43;;;;;;;5.47;4.70;;;20.40;99.90;;;;;;4190323;28;20024;-62
2021/06/29 00:30:44;;;;;;;5.13;4.63;;;20.30;99.90;;;;;;4189712;28;20044;-61
2021/06/29 00:32:46;;;;;;;6.10;4.50;;;20.30;99.90;;;;;;4189640;28;20032;-61
2021/06/29 00:34:47;;;;;;;5.47;4.32;;;20.30;99.90;;;;;;4189618;28;20078;-62
2021/06/29 00:36:48;;;;;;;6.25;4.63;;;20.30;99.90;;;;;;4189920;28;20040;-61
2021/06/29 00:38:49;;;;;;;5.18;4.50;;;20.30;99.90;;;;;;4188131;28;20117;-61
2021/06/29 00:40:51;;;;;;;5.03;4.38;;;20.30;99.90;;;;;;4189580;28;20157;-62
2021/06/29 00:42:52;;;;;;;6.13;4.72;;;20.20;99.90;;;;;;4188577;28;20086;-61
2021/06/29 00:44:54;;;;;;;6.93;5.38;;;20.20;99.90;;;;;;4189961;28;20033;-61
2021/06/29 00:46:56;;;;;;;6.35;4.72;;;20.20;99.90;;;;;;4190737;28;20040;-61
2021/06/29 00:48:57;;;;;;;6.55;4.30;;;20.20;99.90;;;;;;4189817;28;20032;-60
2021/06/29 00:50:58;;;;;;;6.00;4.32;;;20.20;99.90;;;;;;4189084;28;20028;-60
2021/06/29 00:52:59;;;;;;;5.88;4.10;;;20.10;99.90;;;;;;4189724;28;20062;-61
2021/06/29 00:55:01;;;;;;;7.45;5.38;;;20.20;99.90;;;;;;4189780;28;20463;-60
2021/06/29 00:57:02;;;;;;;5.85;4.15;;;20.20;99.90;;;;;;4189776;28;20053;-60
2021/06/29 00:59:04;;;;;;;6.10;4.13;;;20.20;99.90;;;;;;4188444;28;20105;-60
2021/06/29 01:01:05;;;;;;;9.77;5.00;;;20.20;99.90;;;;;;4190302;28;20086;-60
2021/06/29 01:03:06;;;;;;;8.15;4.68;;;20.10;99.90;;;;;;4190219;28;20041;-61
2021/06/29 01:05:07;;;;;;;11.77;4.95;;;20.10;99.90;;;;;;4189700;28;20040;-60
2021/06/29 01:07:10;;;;;;;6.05;4.15;;;20.10;99.90;;;;;;4189067;28;20032;-61
2021/06/29 01:09:12;;;;;;;5.53;4.45;;;20.10;99.90;;;;;;4189152;28;20078;-60
2021/06/29 01:11:14;;;;;;;5.90;4.45;;;20.00;99.90;;;;;;4189349;28;20090;-61
2021/06/29 01:13:31;;;;;;;4.30;3.83;;;20.00;99.90;;;;;;4188997;28;20905;-61
2021/06/29 01:15:33;;;;;;;8.07;4.45;;;19.90;99.90;;;;;;4173172;28;20037;-61
2021/06/29 01:17:34;;;;;;;5.97;4.80;;;19.90;99.90;;;;;;4180266;28;20098;-60
2021/06/29 01:19:40;;;;;;;5.70;4.22;;;19.90;99.90;;;;;;4189319;28;20036;-61
2021/06/29 01:21:44;;;;;;;4.93;3.92;;;19.80;99.90;;;;;;4188873;28;20028;-61
2021/06/29 01:23:53;;;;;;;4.30;3.90;;;19.80;99.90;;;;;;4189510;28;20032;-60
2021/06/29 01:31:15;;;;;;;5.47;4.43;;;19.60;99.90;;;;;;4188025;28;20056;-60
2021/06/29 01:33:20;;;;;;;7.78;4.53;;;19.60;99.90;;;;;;4188924;28;20074;-60
2021/06/29 01:35:21;;;;;;;5.30;4.65;;;19.50;99.90;;;;;;4189114;28;20545;-61
2021/06/29 01:37:23;;;;;;;4.95;4.45;;;19.50;99.90;;;;;;4188470;28;20048;-60
2021/06/29 01:39:26;;;;;;;7.50;4.85;;;19.40;99.90;;;;;;4189334;28;20036;-61
2021/06/29 01:41:27;;;;;;;7.28;4.50;;;19.40;99.90;;;;;;4188900;28;20081;-60
2021/06/29 01:43:32;;;;;;;5.93;4.32;;;19.40;99.90;;;;;;4188309;28;20044;-61
2021/06/29 01:45:33;;;;;;;7.53;4.80;;;19.40;99.90;;;;;;4188914;28;20166;-61
2021/06/29 01:49:51;;;;;;;5.05;4.10;;;19.40;99.90;;;;;;4188645;28;20041;-61
2021/06/29 01:51:53;;;;;;;7.07;4.95;;;19.40;99.90;;;;;;4188804;28;20082;-61
2021/06/29 01:53:54;;;;;;;9.07;5.22;;;19.40;99.90;;;;;;4188454;28;20114;-61
2021/06/29 01:55:56;;;;;;;7.47;5.10;;;19.40;99.90;;;;;;4189219;28;20086;-61
2021/06/29 01:57:59;;;;;;;4.97;4.32;;;19.40;99.90;;;;;;4188591;28;20090;-61
2021/06/29 02:00:00;;;;;;;5.07;4.57;;;19.30;99.90;;;;;;4187730;28;20621;-61
2021/06/29 02:02:01;;;;;;;8.93;4.43;;;19.40;99.90;;;;;;4188476;28;20044;-61
2021/06/29 02:04:02;;;;;;;5.63;4.03;;;19.40;99.90;;;;;;4188455;28;20040;-61
2021/06/29 02:06:03;;;;;;;7.15;4.53;;;19.40;99.90;;;;;;4188575;28;20040;-62
2021/06/29 02:08:05;;;;;;;5.95;4.45;;;19.40;99.90;;;;;;4188303;28;20098;-61
2021/06/29 02:10:07;;;;;;;6.35;4.30;;;19.40;99.90;;;;;;4188647;28;20082;-61
2021/06/29 02:12:08;;;;;;;6.70;4.72;;;19.40;99.90;;;;;;4188401;28;20417;-61
2021/06/29 02:14:09;;;;;;;5.22;4.25;;;19.40;99.90;;;;;;4188839;28;20025;-61
2021/06/29 02:16:10;;;;;;;5.60;4.43;;;19.40;99.90;;;;;;4188330;28;20029;-61
2021/06/29 02:18:12;;;;;;;6.22;4.57;;;19.50;99.90;;;;;;4188205;28;20032;-61
2021/06/29 02:20:14;;;;;;;5.90;4.03;;;19.50;99.90;;;;;;4188702;28;20106;-61
2021/06/29 02:22:15;;;;;;;9.82;5.53;;;19.50;99.90;;;;;;4188378;28;20070;-61
2021/06/29 02:24:16;;;;;;;5.20;4.07;;;19.50;99.90;;;;;;4188758;28;20044;-61
2021/06/29 02:26:18;;;;;;;7.25;4.43;;;19.50;99.90;;;;;;4188094;28;20094;-60
2021/06/29 02:28:19;;;;;;;10.75;5.20;;;19.50;99.90;;;;;;4188472;28;20044;-61
2021/06/29 02:30:20;;;;;;;9.82;5.70;;;19.50;99.90;;;;;;4188306;28;20056;-60
2021/06/29 02:32:22;;;;;;;6.30;5.50;;;19.40;99.90;;;;;;4188116;28;20070;-60
2021/06/29 02:34:23;;;;;;;6.70;5.15;;;19.40;99.90;;;;;;4187954;28;20036;-59
2021/06/29 02:36:24;;;;;;;8.48;5.65;;;19.30;99.90;;;;;;4188270;28;20431;-61
2021/06/29 02:38:26;;;;;;;11.70;5.55;;;19.30;99.90;;;;;;4187362;28;20040;-60
2021/06/29 02:40:27;;;;;;;10.75;5.63;;;19.30;99.90;;;;;;4188295;28;20029;-60
2021/06/29 02:42:28;;;;;;;12.18;6.10;;;19.20;99.90;;;;;;4187449;28;20078;-61
2021/06/29 02:44:32;;;;;;;9.73;6.03;;;19.10;99.90;;;;;;4188268;28;20844;-61
2021/06/29 02:46:35;;;;;;;9.55;6.03;;;19.00;99.90;;;;;;4187986;28;20025;-60
2021/06/29 02:48:36;;;;;;;9.57;5.63;;;18.80;99.90;;;;;;4188484;28;20090;-61
2021/06/29 02:50:37;;;;;;;13.75;6.72;;;18.70;99.90;;;;;;4187907;28;20094;-62
2021/06/29 02:52:39;;;;;;;17.35;8.52;;;18.60;99.90;;;;;;4186472;28;20078;-61
2021/06/29 02:54:40;;;;;;;20.73;15.02;;;18.60;99.90;;;;;;4188351;28;20040;-60
2021/06/29 02:56:41;;;;;;;17.35;13.65;;;18.70;99.90;;;;;;4187872;28;20041;-61
2021/06/29 02:58:42;;;;;;;17.70;11.13;;;18.90;99.90;;;;;;4188629;28;20028;-62
2021/06/29 03:00:43;;;;;;;8.48;7.30;;;19.00;99.90;;;;;;4187980;28;20032;-61
2021/06/29 03:02:45;;;;;;;8.98;6.20;;;19.00;99.90;;;;;;4186979;28;20033;-61
2021/06/29 03:04:46;;;;;;;14.52;6.20;;;19.10;99.90;;;;;;4187986;28;20078;-60
2021/06/29 03:06:47;;;;;;;12.23;5.82;;;19.10;99.90;;;;;;4190436;28;20070;-61
2021/06/29 03:08:48;;;;;;;6.28;5.43;;;19.00;99.90;;;;;;4190424;28;20036;-61
2021/06/29 03:10:49;;;;;;;9.25;5.78;;;19.10;99.90;;;;;;4190654;28;20086;-61
2021/06/29 03:12:51;;;;;;;6.90;6.20;;;19.10;99.90;;;;;;4190958;28;20044;-61
2021/06/29 03:15:01;;;;;;;9.88;5.90;;;19.00;99.90;;;;;;4191206;28;20028;-61
2021/06/29 03:17:07;;;;;;;8.57;5.78;;;18.70;99.90;;;;;;4190765;28;20086;-61
2021/06/29 03:19:08;;;;;;;9.05;5.55;;;18.70;99.90;;;;;;4191401;28;20033;-60
2021/06/29 03:21:10;;;;;;;7.82;5.18;;;18.80;99.90;;;;;;4190442;28;20075;-61
2021/06/29 03:23:11;;;;;;;9.57;5.38;;;18.80;99.90;;;;;;4190012;28;20097;-60
2021/06/29 03:25:13;;;;;;;6.47;4.90;;;18.90;99.90;;;;;;4190971;28;20559;-60
2021/06/29 03:27:14;;;;;;;5.93;5.15;;;18.90;99.90;;;;;;4190930;28;20056;-61
2021/06/29 03:29:15;;;;;;;11.70;5.30;;;19.00;99.90;;;;;;4191013;28;20053;-61
2021/06/29 03:31:16;;;;;;;8.93;5.28;;;18.90;99.90;;;;;;4190371;28;20048;-61
2021/06/29 03:33:17;;;;;;;10.45;6.10;;;19.00;99.90;;;;;;4190849;28;20558;-60
2021/06/29 03:35:19;;;;;;;10.32;6.45;;;19.20;99.90;;;;;;4190010;28;20044;-60
2021/06/29 03:37:20;;;;;;;8.95;5.47;;;19.30;99.90;;;;;;4189885;28;20057;-60
2021/06/29 03:39:21;;;;;;;12.60;6.78;;;19.30;99.90;;;;;;4189487;28;20044;-61
2021/06/29 03:41:24;;;;;;;10.98;6.82;;;19.00;99.90;;;;;;4190364;28;20094;-60
2021/06/29 03:43:25;;;;;;;14.75;7.05;;;18.90;99.90;;;;;;4190370;28;20105;-61
2021/06/29 03:45:26;;;;;;;11.82;7.15;;;19.10;99.90;;;;;;4190651;28;20578;-60
2021/06/29 03:47:27;;;;;;;14.98;7.60;;;19.40;99.90;;;;;;4190477;28;20086;-61
2021/06/29 03:49:28;;;;;;;10.25;7.60;;;19.70;99.90;;;;;;4190226;28;20094;-61
2021/06/29 03:51:29;;;;;;;9.95;7.40;;;20.00;99.90;;;;;;4189960;28;20021;-61
2021/06/29 03:53:31;;;;;;;17.13;7.63;;;20.30;99.90;;;;;;4190712;28;20089;-60
2021/06/29 03:55:33;;;;;;;11.77;7.40;;;20.60;99.90;;;;;;4190481;28;20028;-62
2021/06/29 03:57:34;;;;;;;14.25;7.57;;;20.70;99.90;;;;;;4189515;28;20036;-61
2021/06/29 03:59:35;;;;;;;19.02;7.55;;;20.90;99.90;;;;;;4189322;28;20032;-60
2021/06/29 04:01:37;;;;;;;17.77;7.65;;;21.10;99.90;;;;;;4189765;28;20082;-61
2021/06/29 04:03:38;;;;;;;14.75;8.30;;;21.10;99.90;;;;;;4190085;28;20476;-61
2021/06/29 04:05:39;;;;;;;15.98;8.18;;;21.20;99.90;;;;;;4190081;28;20032;-62
2021/06/29 04:07:41;;;;;;;15.43;9.00;;;21.30;99.90;;;;;;4190281;28;20090;-61
2021/06/29 04:09:42;;;;;;;16.40;8.32;;;21.40;99.90;;;;;;4190144;28;20045;-61
2021/06/29 04:11:43;;;;;;;14.18;8.25;;;21.50;99.90;;;;;;4189837;28;20020;-62
2021/06/29 04:13:44;;;;;;;21.17;8.65;;;21.80;99.90;;;;;;4190400;28;20041;-61
2021/06/29 04:15:45;;;;;;;10.82;8.90;;;22.10;99.90;;;;;;4190448;28;20032;-61
2021/06/29 04:17:46;;;;;;;12.88;8.10;;;22.50;99.90;;;;;;4188640;28;20044;-62
2021/06/29 04:19:50;;;;;;;13.68;8.20;;;22.80;99.90;;;;;;4190273;28;20052;-62
2021/06/29 04:21:51;;;;;;;16.30;8.70;;;23.10;99.90;;;;;;4189759;28;20040;-61
2021/06/29 04:23:52;;;;;;;16.42;8.70;;;23.70;99.90;;;;;;4189958;28;20048;-62
2021/06/29 04:25:54;;;;;;;13.25;8.57;;;24.00;99.90;;;;;;4189434;28;20118;-61
2021/06/29 04:27:55;;;;;;;28.55;8.02;;;24.30;99.90;;;;;;4190350;28;20090;-62
2021/06/29 04:29:56;;;;;;;17.23;8.15;;;24.50;99.90;;;;;;4189364;28;20028;-62
2021/06/29 04:31:57;;;;;;;15.57;7.45;;;24.70;99.90;;;;;;4189329;28;20033;-62
2021/06/29 04:33:59;;;;;;;19.65;8.48;;;24.90;99.90;;;;;;4189959;28;20454;-62
2021/06/29 04:36:00;;;;;;;27.00;8.73;;;25.10;99.90;;;;;;4189662;28;20473;-62
2021/06/29 04:38:01;;;;;;;21.05;9.23;;;25.30;99.90;;;;;;4189647;28;20492;-62
2021/06/29 04:40:03;;;;;;;28.88;9.18;;;25.40;99.90;;;;;;4189327;28;20094;-62
2021/06/29 04:42:04;;;;;;;19.45;8.55;;;25.70;99.90;;;;;;4188613;28;20048;-62
2021/06/29 04:44:06;;;;;;;24.35;9.18;;;25.90;99.90;;;;;;4188197;28;20036;-61
2021/06/29 04:46:07;;;;;;;30.48;8.27;;;26.60;99.90;;;;;;4188727;28;20052;-62
2021/06/29 04:48:09;;;;;;;29.40;9.55;;;26.90;99.90;;;;;;4187732;28;20109;-61
2021/06/29 04:50:11;;;;;;;25.55;7.50;;;27.40;99.90;;;;;;4188830;28;20089;-62
2021/06/29 04:52:12;;;;;;;18.98;7.80;;;27.70;99.50;;;;;;4189090;28;20032;-62
2021/06/29 04:54:13;;;;;;;20.25;8.30;;;27.90;98.90;;;;;;4188867;28;20032;-62
2021/06/29 04:56:17;;;;;;;15.43;6.72;;;28.10;98.10;;;;;;4189362;28;20170;-62
2021/06/29 04:58:18;;;;;;;24.45;6.88;;;28.30;97.30;;;;;;4188653;28;20474;-62
2021/06/29 05:00:21;;;;;;;24.40;6.75;;;28.60;97.00;;;;;;4188928;28;20078;-63
2021/06/29 05:02:22;;;;;;;18.67;6.82;;;28.80;96.20;;;;;;4187698;28;20020;-62
2021/06/29 05:04:23;;;;;;;11.82;5.70;;;29.00;95.60;;;;;;4188958;28;20534;-62
2021/06/29 05:06:24;;;;;;;16.55;5.63;;;29.00;95.10;;;;;;4189034;28;20534;-62
2021/06/29 05:08:25;;;;;;;12.70;5.88;;;29.00;94.70;;;;;;4187334;28;20040;-62
2021/06/29 05:10:27;;;;;;;13.77;6.50;;;29.40;94.20;;;;;;4186253;28;20044;-62
2021/06/29 05:12:28;;;;;;;16.77;6.82;;;28.90;93.60;;;;;;4189221;28;20048;-62
2021/06/29 05:14:30;;;;;;;14.02;7.07;;;28.10;94.10;;;;;;4189356;28;20476;-61
2021/06/29 05:16:31;;;;;;;14.52;7.50;;;27.20;94.70;;;;;;4188876;28;20086;-62
2021/06/29 05:18:32;;;;;;;16.08;8.10;;;26.50;95.40;;;;;;4188870;28;20040;-62
2021/06/29 05:20:33;;;;;;;20.15;8.63;;;26.00;96.00;;;;;;4189113;28;20415;-61
2021/06/29 05:22:34;;;;;;;12.25;7.43;;;26.00;96.30;;;;;;4188039;28;20423;-61
2021/06/29 05:24:35;;;;;;;16.58;6.70;;;25.70;96.50;;;;;;4188851;28;20082;-61
2021/06/29 05:26:37;;;;;;;11.85;7.20;;;25.20;96.90;;;;;;4188953;28;20032;-61
2021/06/29 05:28:38;;;;;;;14.15;6.40;;;25.20;97.40;;;;;;4188885;28;20461;-62
2021/06/29 05:30:39;;;;;;;19.60;7.35;;;25.70;97.10;;;;;;4188594;28;20798;-62
2021/06/29 05:32:40;;;;;;;9.93;6.10;;;26.20;96.40;;;;;;4188556;28;20024;-61
2021/06/29 05:34:41;;;;;;;11.90;5.88;;;26.90;95.80;;;;;;4188627;28;20029;-61
2021/06/29 05:36:43;;;;;;;13.00;6.10;;;26.80;95.60;;;;;;4188123;28;20074;-61
2021/06/29 05:38:44;;;;;;;16.02;6.35;;;26.40;96.10;;;;;;4188735;28;20090;-61
2021/06/29 05:40:45;;;;;;;11.32;6.28;;;26.40;96.20;;;;;;4188420;28;20034;-61
2021/06/29 05:42:46;;;;;;;16.33;6.20;;;26.60;96.30;;;;;;4188920;28;20062;-63
2021/06/29 05:44:47;;;;;;;11.23;6.25;;;27.00;95.70;;;;;;4188600;28;20032;-62
2021/06/29 05:46:51;;;;;;;16.35;7.32;;;27.30;95.50;;;;;;4188420;28;20062;-62
2021/06/29 05:48:52;;;;;;;9.95;7.10;;;27.30;95.30;;;;;;4188838;28;20832;-62
2021/06/29 05:50:53;;;;;;;12.63;6.20;;;27.20;95.30;;;;;;4188861;28;20028;-64
2021/06/29 05:52:54;;;;;;;13.73;6.68;;;26.90;95.40;;;;;;4188409;28;20090;-64
2021/06/29 05:54:56;;;;;;;13.00;6.45;;;26.70;95.70;;;;;;4188559;28;20557;-63
2021/06/29 05:56:57;;;;;;;13.90;6.85;;;26.60;95.80;;;;;;4188583;28;20041;-63
2021/06/29 05:58:58;;;;;;;15.82;6.60;;;27.10;95.70;;;;;;4188255;28;20566;-63
2021/06/29 06:00:59;;;;;;;15.23;6.10;;;27.70;95.20;;;;;;4188555;28;20044;-63
2021/06/29 06:03:00;;;;;;;14.98;6.20;;;28.10;94.70;;;;;;4188311;28;20435;-65
2021/06/29 06:05:02;;;;;;;11.63;6.32;;;28.20;94.20;;;;;;4188286;28;20066;-65
2021/06/29 06:07:04;;;;;;;13.35;6.40;;;28.20;93.90;;;;;;4188600;28;20020;-63
2021/06/29 06:09:05;;;;;;;16.63;5.97;;;28.30;94.00;;;;;;4188375;28;20110;-63
2021/06/29 06:11:06;;;;;;;11.05;5.65;;;28.10;93.70;;;;;;4188210;28;20165;-66
2021/06/29 06:13:07;;;;;;;11.43;5.82;;;28.00;93.90;;;;;;4188526;28;20477;-65
2021/06/29 06:15:09;;;;;;;13.15;6.18;;;28.30;93.80;;;;;;4188801;28;20028;-62
2021/06/29 06:17:10;;;;;;;13.77;5.20;;;28.60;93.50;;;;;;4188858;28;20024;-67
2021/06/29 06:19:11;;;;;;;9.50;5.30;;;29.00;93.10;;;;;;4188001;28;20036;-66
2021/06/29 06:21:12;;;;;;;11.43;5.80;;;28.90;92.60;;;;;;4188308;28;20513;-66
2021/06/29 06:23:13;;;;;;;9.57;5.60;;;28.50;92.50;;;;;;4188132;28;20056;-63
2021/06/29 06:25:15;;;;;;;9.50;4.88;;;28.40;92.60;;;;;;4188837;28;20085;-65
2021/06/29 06:27:16;;;;;;;5.85;3.95;;;28.70;92.40;;;;;;4188431;28;20037;-62
2021/06/29 06:29:17;;;;;;;9.88;5.32;;;29.30;92.00;;;;;;4188589;28;20039;-63
2021/06/29 06:31:18;;;;;;;12.95;6.50;;;29.60;91.40;;;;;;4187798;28;20048;-61
2021/06/29 06:33:20;;;;;;;10.23;5.72;;;29.50;91.20;;;;;;4187703;28;20074;-62
2021/06/29 06:35:22;;;;;;;12.93;5.82;;;29.00;91.20;;;;;;4183037;28;20040;-61
2021/06/29 06:37:23;;;;;;;11.18;6.20;;;28.20;91.60;;;;;;4188198;28;20105;-61
2021/06/29 06:39:24;;;;;;;9.02;4.75;;;27.90;91.90;;;;;;4179980;28;20161;-61
2021/06/29 06:41:25;;;;;;;12.30;6.75;;;27.60;92.40;;;;;;4191001;28;20157;-61
2021/06/29 06:43:26;;;;;;;10.88;5.97;;;27.40;92.50;;;;;;4191280;28;20041;-61
2021/06/29 06:45:27;;;;;;;11.40;5.78;;;27.20;92.70;;;;;;4190870;28;20102;-62
2021/06/29 06:47:29;;;;;;;10.18;5.40;;;27.00;92.80;;;;;;4191408;28;20028;-61
2021/06/29 06:49:30;;;;;;;10.10;5.72;;;26.90;92.80;;;;;;4190787;28;20094;-62
2021/06/29 06:51:31;;;;;;;9.15;5.32;;;26.80;93.00;;;;;;4190906;28;20036;-61
2021/06/29 06:53:32;;;;;;;7.47;5.03;;;26.80;93.00;;;;;;4191187;28;20090;-61
2021/06/29 06:55:33;;;;;;;9.68;4.93;;;26.70;93.00;;;;;;4191215;28;20040;-61
2021/06/29 06:57:35;;;;;;;5.28;3.95;;;26.70;93.10;;;;;;4190656;28;20086;-61
2021/06/29 06:59:36;;;;;;;4.65;3.72;;;26.60;92.80;;;;;;4202285;28;20442;-62
2021/06/29 07:01:41;;;;;;;6.57;4.03;;;26.60;92.70;;;;;;4190867;28;20036;-62
2021/06/29 07:03:43;;;;;;;4.82;4.35;;;26.40;92.80;;;;;;4191591;28;20036;-61
2021/06/29 07:05:44;;;;;;;6.20;4.20;;;26.30;93.00;;;;;;4191493;28;20116;-60
2021/06/29 07:07:45;;;;;;;6.05;4.65;;;26.30;93.30;;;;;;4191001;28;20029;-61
2021/06/29 07:09:46;;;;;;;8.80;4.85;;;26.30;93.50;;;;;;4191173;28;20125;-61
2021/06/29 07:11:49;;;;;;;7.13;4.80;;;26.50;93.90;;;;;;4191180;28;20036;-61
2021/06/29 07:13:50;;;;;;;10.80;4.90;;;26.50;94.00;;;;;;4190231;28;20148;-62
2021/06/29 07:15:52;;;;;;;5.47;4.50;;;26.50;94.10;;;;;;4189511;28;20079;-61
2021/06/29 07:17:53;;;;;;;6.68;4.60;;;26.60;94.20;;;;;;4190198;28;20404;-61
2021/06/29 07:19:54;;;;;;;13.63;7.30;;;26.90;94.40;;;;;;4176520;28;20106;-62
2021/06/29 07:21:55;;;;;;;9.65;5.05;;;27.00;94.10;;;;;;4190270;28;20037;-61
2021/06/29 07:23:56;;;;;;;8.68;4.90;;;26.90;94.40;;;;;;4175349;28;20060;-61
2021/06/29 07:25:57;;;;;;;7.45;5.18;;;26.80;94.70;;;;;;4180408;28;20095;-61
2021/06/29 07:27:58;;;;;;;9.95;5.55;;;26.90;94.80;;;;;;4190876;28;20679;-60
2021/06/29 07:30:00;;;;;;;7.03;4.95;;;26.90;95.00;;;;;;4193184;28;20036;-63
2021/06/29 07:32:02;;;;;;;9.68;5.10;;;26.80;95.20;;;;;;4207244;28;20772;-63
2021/06/29 07:34:03;;;;;;;7.15;5.10;;;27.00;95.30;;;;;;4204117;28;20036;-63
2021/06/29 07:36:05;;;;;;;8.35;5.85;;;27.20;95.30;;;;;;4190278;28;20468;-62
2021/06/29 07:38:07;;;;;;;6.55;4.78;;;27.20;95.40;;;;;;4190438;28;20037;-63
2021/06/29 07:40:09;;;;;;;7.03;5.05;;;27.20;95.60;;;;;;4190390;28;20040;-63
2021/06/29 07:42:10;;;;;;;5.90;5.10;;;27.20;95.70;;;;;;4189881;28;20566;-63
2021/06/29 07:44:11;;;;;;;7.00;5.32;;;27.10;95.90;;;;;;4190032;28;20070;-63
2021/06/29 07:46:12;;;;;;;6.93;4.90;;;27.20;96.20;;;;;;4190357;28;20044;-63
2021/06/29 07:48:14;;;;;;;7.93;5.00;;;26.90;96.80;;;;;;4190567;28;20476;-62
2021/06/29 07:50:15;;;;;;;7.38;5.57;;;26.80;97.00;;;;;;4190402;28;20024;-62
2021/06/29 07:52:16;;;;;;;5.22;4.63;;;26.80;97.10;;;;;;4190406;28;20029;-63
2021/06/29 07:54:18;;;;;;;8.88;5.25;;;26.80;97.20;;;;;;4190769;28;20480;-63
2021/06/29 07:56:21;;;;;;;7.47;4.57;;;26.80;97.50;;;;;;4190997;28;20048;-62
2021/06/29 07:58:23;;;;;;;8.13;5.03;;;26.60;97.80;;;;;;4189843;28;20508;-62
2021/06/29 08:00:25;;;;;;;7.70;4.15;;;26.70;97.90;;;;;;4189601;28;20032;-62
2021/06/29 08:02:26;;;;;;;5.35;4.85;;;26.80;97.80;;;;;;4189767;28;20070;-62
2021/06/29 08:04:27;;;;;;;9.70;4.85;;;26.90;97.90;;;;;;4190425;28;20036;-62
2021/06/29 08:06:28;;;;;;;7.50;4.90;;;26.90;97.90;;;;;;4189722;28;20020;-61
2021/06/29 08:08:29;;;;;;;7.72;4.55;;;26.90;98.20;;;;;;4189871;28;20033;-61
2021/06/29 08:10:31;;;;;;;11.20;6.03;;;26.80;98.30;;;;;;4189500;28;20086;-62
2021/06/29 08:12:32;;;;;;;5.30;4.80;;;27.10;98.20;;;;;;4190320;28;20102;-61
2021/06/29 08:14:37;;;;;;;5.93;4.47;;;27.20;98.00;;;;;;4189460;28;20491;-63
2021/06/29 08:16:38;;;;;;;6.88;4.40;;;27.30;97.90;;;;;;4189567;28;20074;-63
2021/06/29 08:18:40;;;;;;;5.88;5.28;;;27.40;97.80;;;;;;4190014;28;20052;-62
2021/06/29 08:20:41;;;;;;;14.95;4.85;;;27.60;97.80;;;;;;4189816;28;20036;-63
2021/06/29 08:22:43;;;;;;;6.65;5.40;;;27.40;97.80;;;;;;4189624;28;20037;-62
2021/06/29 08:24:45;;;;;;;6.68;5.57;;;27.30;98.10;;;;;;4190132;28;20831;-63
2021/06/29 08:26:46;;;;;;;6.95;5.40;;;27.30;98.20;;;;;;4189617;28;20102;-63
2021/06/29 08:28:47;;;;;;;7.88;5.43;;;27.40;98.30;;;;;;4189384;28;20106;-63
2021/06/29 08:30:51;;;;;;;7.38;5.25;;;27.50;98.30;;;;;;4189640;28;20554;-63
2021/06/29 08:32:52;;;;;;;9.60;5.68;;;27.50;98.30;;;;;;4189671;28;20044;-62
2021/06/29 08:34:54;;;;;;;6.38;5.05;;;27.50;98.20;;;;;;4189671;28;20032;-63
2021/06/29 08:36:55;;;;;;;6.75;5.20;;;27.40;98.30;;;;;;4189112;28;20519;-63
2021/06/29 08:38:56;;;;;;;7.88;5.03;;;27.50;98.40;;;;;;4189272;28;20040;-63
2021/06/29 08:40:58;;;;;;;8.82;5.88;;;27.40;98.40;;;;;;4189027;28;20040;-63
2021/06/29 08:42:59;;;;;;;7.28;5.20;;;27.50;98.50;;;;;;4189050;28;20604;-63
2021/06/29 08:45:02;;;;;;;10.10;6.18;;;27.60;98.40;;;;;;4189395;28;20497;-62
2021/06/29 08:47:06;;;;;;;5.95;5.35;;;27.70;98.30;;;;;;4189080;28;20028;-63
2021/06/29 08:49:08;;;;;;;5.93;5.20;;;27.60;98.50;;;;;;4188677;28;20024;-62
2021/06/29 08:51:10;;;;;;;11.65;6.85;;;27.60;98.50;;;;;;4189002;28;20437;-63
2021/06/29 08:53:13;;;;;;;6.15;5.45;;;27.60;98.60;;;;;;4188835;28;20125;-62
2021/06/29 08:55:14;;;;;;;9.20;5.53;;;27.50;98.60;;;;;;4189338;28;20032;-63
2021/06/29 08:57:15;;;;;;;7.50;6.13;;;27.60;98.60;;;;;;4188941;28;20036;-62
2021/06/29 08:59:17;;;;;;;8.73;6.43;;;27.60;98.50;;;;;;4189319;28;20114;-63
2021/06/29 09:01:18;;;;;;;8.35;5.72;;;27.70;98.50;;;;;;4188739;28;20826;-62
2021/06/29 09:03:19;;;;;;;5.63;5.05;;;27.60;98.30;;;;;;4188093;28;20032;-63
2021/06/29 09:05:29;;;;;;;6.53;4.65;;;27.60;98.40;;;;;;4188966;28;20413;-62
2021/06/29 09:07:31;;;;;;;11.43;5.40;;;27.60;98.40;;;;;;4188680;28;20045;-63
2021/06/29 09:09:34;;;;;;;7.70;5.35;;;27.60;98.30;;;;;;4188959;28;20273;-61
2021/06/29 09:11:36;;;;;;;8.93;5.70;;;27.70;98.20;;;;;;4189076;28;20423;-63
2021/06/29 09:13:39;;;;;;;9.50;4.78;;;27.80;98.20;;;;;;4189142;28;20116;-63
2021/06/29 09:15:45;;;;;;;7.30;5.18;;;27.80;97.90;;;;;;4188749;28;20477;-62
2021/06/29 09:17:47;;;;;;;8.00;4.80;;;27.80;97.80;;;;;;4188729;28;20040;-62
2021/06/29 09:19:48;;;;;;;8.43;5.63;;;27.90;97.80;;;;;;4188743;28;20064;-62
2021/06/29 09:21:49;;;;;;;6.85;5.82;;;27.90;97.60;;;;;;4188718;28;20855;-62
2021/06/29 09:23:51;;;;;;;9.40;5.68;;;27.90;97.60;;;;;;4189255;28;20113;-63
2021/06/29 09:25:57;;;;;;;5.28;4.30;;;27.90;97.30;;;;;;4188673;28;20058;-63
2021/06/29 09:27:58;;;;;;;5.45;4.72;;;28.00;97.00;;;;;;4188403;28;20387;-62
2021/06/29 09:29:59;;;;;;;11.40;4.70;;;28.00;96.90;;;;;;4188574;28;20086;-63
2021/06/29 09:32:17;;;;;;;5.55;4.35;;;28.10;96.80;;;;;;4188537;28;20044;-62
2021/06/29 09:34:18;;;;;;;6.28;4.40;;;28.20;96.20;;;;;;4188214;28;20025;-62
2021/06/29 09:36:31;;;;;;;8.13;5.00;;;28.20;96.40;;;;;;4188423;28;20040;-63
2021/06/29 09:38:37;;;;;;;5.93;4.50;;;28.30;96.10;;;;;;4188359;28;20119;-62
2021/06/29 09:40:38;;;;;;;5.45;4.93;;;28.30;96.10;;;;;;4188526;28;20032;-62
2021/06/29 09:42:40;;;;;;;6.53;4.22;;;28.30;95.90;;;;;;4188082;28;20048;-62
2021/06/29 09:44:41;;;;;;;5.45;4.60;;;28.30;95.70;;;;;;4188824;28;20456;-62
2021/06/29 09:46:44;;;;;;;4.78;3.97;;;28.30;95.60;;;;;;4188738;28;20086;-63
2021/06/29 09:48:58;;;;;;;7.30;4.80;;;28.30;95.40;;;;;;4188344;28;20382;-63
2021/06/29 09:51:08;;;;;;;5.35;3.92;;;28.40;95.40;;;;;;4188400;28;20079;-62
2021/06/29 09:53:27;;;;;;;5.07;4.03;;;28.60;95.30;;;;;;4188802;28;20459;-62
2021/06/29 09:55:40;;;;;;;4.65;4.15;;;28.80;94.70;;;;;;4188633;28;20388;-62
2021/06/29 09:57:41;;;;;;;6.18;4.38;;;29.00;94.20;;;;;;4187149;28;20036;-62
2021/06/29 09:59:43;;;;;;;5.30;3.97;;;29.10;94.20;;;;;;4187883;28;20589;-61
2021/06/29 10:01:45;;;;;;;4.85;3.72;;;28.90;94.30;;;;;;4188397;28;20032;-61
2021/06/29 10:03:51;;;;;;;6.18;4.30;;;28.90;94.30;;;;;;4188247;28;20038;-62
2021/06/29 10:05:58;;;;;;;4.07;3.78;;;28.90;94.20;;;;;;4188169;28;20024;-62
2021/06/29 10:07:59;;;;;;;6.28;3.92;;;29.00;94.10;;;;;;4188148;28;20419;-62
2021/06/29 10:10:17;;;;;;;6.00;3.80;;;29.00;94.00;;;;;;4188114;28;20098;-62
2021/06/29 10:12:25;;;;;;;4.80;3.70;;;29.10;93.70;;;;;;4188288;28;20040;-62
2021/06/29 10:14:26;;;;;;;5.05;3.63;;;29.10;93.70;;;;;;4188329;28;20425;-61
2021/06/29 10:16:30;;;;;;;7.63;3.95;;;29.10;93.60;;;;;;4190628;28;20050;-62
2021/06/29 10:18:35;;;;;;;6.65;3.80;;;29.20;93.00;;;;;;4191810;28;20494;-63
2021/06/29 10:20:53;;;;;;;6.13;4.03;;;29.30;93.10;;;;;;4192083;28;20098;-62
2021/06/29 10:22:55;;;;;;;6.80;3.35;;;29.30;93.10;;;;;;4191696;28;20094;-62
2021/06/29 10:24:57;;;;;;;4.68;3.53;;;29.50;92.80;;;;;;4190394;28;20036;-62
2021/06/29 10:27:00;;;;;;;5.55;3.78;;;29.50;92.50;;;;;;4191457;28;20033;-64
2021/06/29 10:29:05;;;;;;;6.13;3.42;;;29.60;92.40;;;;;;4191568;28;20044;-62
2021/06/29 10:31:07;;;;;;;3.70;3.40;;;29.60;92.20;;;;;;4191336;28;20040;-62
2021/06/29 10:33:11;;;;;;;4.38;3.58;;;29.50;92.00;;;;;;4191262;28;20030;-62
2021/06/29 10:35:12;;;;;;;5.43;3.15;;;29.40;92.00;;;;;;4191424;28;20062;-62
2021/06/29 10:37:13;;;;;;;7.10;3.00;;;29.50;91.90;;;;;;4191808;28;20460;-63
2021/06/29 10:39:18;;;;;;;5.68;3.10;;;29.70;91.40;;;;;;4191609;28;20102;-62